sensor_id;sensor_type;location;lat;lon;timestamp;pressure;altitude;pressure_sealevel;temperature;humidity
7802;BME280;3945;48.952;9.506;2022-09-17T00:01:38;97606.34;;;10.78;90.91
7802;BME280;3945;48.952;9.506;2022-09-17T00:04:04;97611.34;;;10.74;90.94
7802;BME280;3945;48.952;9.506;2022-09-17T00:06:31;97613.97;;;10.69;90.91
7802;BME280;3945;48.952;9.506;2022-09-17T00:08:58;97617.66;;;10.68;91.01
7802;BME280;3945;48.952;9.506;2022-09-17T00:11:26;97615.09;;;10.73;91.35
7802;BME280;3945;48.952;9.506;2022-09-17T00:13:52;97620.41;;;10.73;91.62
7802;BME280;3945;48.952;9.506;2022-09-17T00:16:24;97617.00;;;10.78;91.68
7802;BME280;3945;48.952;9.506;2022-09-17T00:18:52;97619.13;;;10.81;91.83
7802;BME280;3945;48.952;9.506;2022-09-17T00:21:18;97621.06;;;10.85;92.19
7802;BME280;3945;48.952;9.506;2022-09-17T00:23:45;97626.41;;;10.85;91.95
7802;BME280;3945;48.952;9.506;2022-09-17T00:26:11;97616.78;;;10.84;91.89
7802;BME280;3945;48.952;9.506;2022-09-17T00:28:37;97626.97;;;10.87;92.03
7802;BME280;3945;48.952;9.506;2022-09-17T00:31:06;97626.97;;;10.87;92.53
7802;BME280;3945;48.952;9.506;2022-09-17T00:33:32;97626.19;;;10.92;92.40
7802;BME280;3945;48.952;9.506;2022-09-17T00:36:00;97629.09;;;10.90;92.49
7802;BME280;3945;48.952;9.506;2022-09-17T00:38:27;97631.75;;;10.90;92.81
7802;BME280;3945;48.952;9.506;2022-09-17T00:40:54;97630.72;;;10.91;92.72
7802;BME280;3945;48.952;9.506;2022-09-17T00:43:33;97629.91;;;10.91;92.65
7802;BME280;3945;48.952;9.506;2022-09-17T00:46:00;97630.47;;;10.93;91.69
7802;BME280;3945;48.952;9.506;2022-09-17T00:48:27;97627.81;;;10.93;91.12
7802;BME280;3945;48.952;9.506;2022-09-17T00:50:53;97626.75;;;10.94;91.21
7802;BME280;3945;48.952;9.506;2022-09-17T00:53:23;97630.72;;;10.91;91.49
7802;BME280;3945;48.952;9.506;2022-09-17T00:55:51;97624.59;;;10.91;91.56
7802;BME280;3945;48.952;9.506;2022-09-17T00:58:20;97619.03;;;10.92;92.22
7802;BME280;3945;48.952;9.506;2022-09-17T01:00:47;97624.91;;;10.94;91.85
7802;BME280;3945;48.952;9.506;2022-09-17T01:03:14;97624.63;;;10.96;91.82
7802;BME280;3945;48.952;9.506;2022-09-17T01:05:41;97625.16;;;10.93;91.76
7802;BME280;3945;48.952;9.506;2022-09-17T01:08:11;97623.53;;;10.92;91.64
7802;BME280;3945;48.952;9.506;2022-09-17T01:10:51;97622.97;;;10.90;91.16
7802;BME280;3945;48.952;9.506;2022-09-17T01:13:23;97626.69;;;10.89;91.40
7802;BME280;3945;48.952;9.506;2022-09-17T01:15:54;97629.63;;;10.87;91.71
7802;BME280;3945;48.952;9.506;2022-09-17T01:18:27;97621.06;;;10.85;91.79
7802;BME280;3945;48.952;9.506;2022-09-17T01:26:45;97616.22;;;10.82;92.18
7802;BME280;3945;48.952;9.506;2022-09-17T01:29:17;97621.31;;;10.84;92.33
7802;BME280;3945;48.952;9.506;2022-09-17T01:31:51;97622.94;;;10.85;92.39
7802;BME280;3945;48.952;9.506;2022-09-17T01:34:19;97612.53;;;10.83;92.20
7802;BME280;3945;48.952;9.506;2022-09-17T01:36:51;97616.22;;;10.82;91.74
7802;BME280;3945;48.952;9.506;2022-09-17T01:39:26;97623.13;;;10.78;91.67
7802;BME280;3945;48.952;9.506;2022-09-17T01:41:57;97621.50;;;10.77;91.62
7802;BME280;3945;48.952;9.506;2022-09-17T01:44:28;97625.72;;;10.73;91.60
7802;BME280;3945;48.952;9.506;2022-09-17T01:47:00;97625.09;;;10.66;91.27
7802;BME280;3945;48.952;9.506;2022-09-17T01:49:29;97630.59;;;10.60;91.11
7802;BME280;3945;48.952;9.506;2022-09-17T01:51:57;97631.59;;;10.53;90.82
7802;BME280;3945;48.952;9.506;2022-09-17T01:54:26;97638.25;;;10.51;91.41
7802;BME280;3945;48.952;9.506;2022-09-17T01:56:55;97633.16;;;10.49;91.62
7802;BME280;3945;48.952;9.506;2022-09-17T01:59:26;97639.28;;;10.50;91.74
7802;BME280;3945;48.952;9.506;2022-09-17T02:02:00;97630.25;;;10.51;91.83
7802;BME280;3945;48.952;9.506;2022-09-17T02:04:29;97632.09;;;10.50;91.94
7802;BME280;3945;48.952;9.506;2022-09-17T02:06:58;97626.50;;;10.52;92.01
7802;BME280;3945;48.952;9.506;2022-09-17T02:09:26;97633.72;;;10.51;91.85
7802;BME280;3945;48.952;9.506;2022-09-17T02:11:55;97634.78;;;10.50;92.03
7802;BME280;3945;48.952;9.506;2022-09-17T02:14:24;97637.66;;;10.49;91.95
7802;BME280;3945;48.952;9.506;2022-09-17T02:16:54;97633.16;;;10.49;92.06
7802;BME280;3945;48.952;9.506;2022-09-17T02:19:22;97630.78;;;10.53;92.07
7802;BME280;3945;48.952;9.506;2022-09-17T02:21:52;97634.25;;;10.53;92.38
7802;BME280;3945;48.952;9.506;2022-09-17T02:24:23;97634.25;;;10.53;92.91
7802;BME280;3945;48.952;9.506;2022-09-17T02:26:52;97632.97;;;10.56;92.85
7802;BME280;3945;48.952;9.506;2022-09-17T02:29:22;97646.03;;;10.57;93.11
7802;BME280;3945;48.952;9.506;2022-09-17T02:31:50;97639.91;;;10.57;93.04
7802;BME280;3945;48.952;9.506;2022-09-17T02:34:16;97643.66;;;10.61;93.21
7802;BME280;3945;48.952;9.506;2022-09-17T02:36:44;97643.66;;;10.61;93.24
7802;BME280;3945;48.952;9.506;2022-09-17T02:42:18;97638.91;;;10.63;93.11
7802;BME280;3945;48.952;9.506;2022-09-17T02:44:48;97640.53;;;10.64;93.36
7802;BME280;3945;48.952;9.506;2022-09-17T02:47:22;97634.97;;;10.66;93.26
7802;BME280;3945;48.952;9.506;2022-09-17T02:50:01;97629.63;;;10.66;93.43
7802;BME280;3945;48.952;9.506;2022-09-17T02:52:34;97627.50;;;10.68;93.32
7802;BME280;3945;48.952;9.506;2022-09-17T02:55:06;97632.34;;;10.71;93.21
7802;BME280;3945;48.952;9.506;2022-09-17T02:57:38;97625.47;;;10.75;93.36
7802;BME280;3945;48.952;9.506;2022-09-17T03:00:06;97625.22;;;10.76;93.17
7802;BME280;3945;48.952;9.506;2022-09-17T03:02:38;97626.84;;;10.77;93.23
7802;BME280;3945;48.952;9.506;2022-09-17T03:05:06;97627.63;;;10.78;93.27
7802;BME280;3945;48.952;9.506;2022-09-17T03:07:33;97627.63;;;10.78;93.07
7802;BME280;3945;48.952;9.506;2022-09-17T03:09:59;97632.97;;;10.78;93.22
7802;BME280;3945;48.952;9.506;2022-09-17T03:12:25;97614.34;;;10.78;92.68
7802;BME280;3945;48.952;9.506;2022-09-17T03:14:53;97622.88;;;10.80;92.87
7802;BME280;3945;48.952;9.506;2022-09-17T03:17:19;97627.69;;;10.83;92.48
7802;BME280;3945;48.952;9.506;2022-09-17T03:19:46;97625.84;;;10.83;92.32
7802;BME280;3945;48.952;9.506;2022-09-17T03:22:12;97628.50;;;10.83;92.25
7802;BME280;3945;48.952;9.506;2022-09-17T03:24:38;97624.22;;;10.82;91.63
7802;BME280;3945;48.952;9.506;2022-09-17T03:27:04;97628.19;;;10.80;91.52
7802;BME280;3945;48.952;9.506;2022-09-17T03:29:32;97627.13;;;10.81;92.00
7802;BME280;3945;48.952;9.506;2022-09-17T03:32:00;97629.00;;;10.80;91.49
7802;BME280;3945;48.952;9.506;2022-09-17T03:34:26;97629.31;;;10.84;91.66
7802;BME280;3945;48.952;9.506;2022-09-17T03:36:52;97628.50;;;10.83;90.33
7802;BME280;3945;48.952;9.506;2022-09-17T03:39:18;97629.31;;;10.84;90.63
7802;BME280;3945;48.952;9.506;2022-09-17T03:41:45;97631.97;;;10.84;90.33
7802;BME280;3945;48.952;9.506;2022-09-17T03:44:11;97639.66;;;10.80;90.64
7802;BME280;3945;48.952;9.506;2022-09-17T03:46:38;97639.94;;;10.84;91.18
7802;BME280;3945;48.952;9.506;2022-09-17T03:49:06;97634.88;;;10.82;91.42
7802;BME280;3945;48.952;9.506;2022-09-17T03:51:33;97637.28;;;10.84;91.40
7802;BME280;3945;48.952;9.506;2022-09-17T03:53:59;97638.09;;;10.84;91.43
7802;BME280;3945;48.952;9.506;2022-09-17T03:56:27;97645.59;;;10.87;90.89
7802;BME280;3945;48.952;9.506;2022-09-17T03:58:55;97649.03;;;10.88;91.58
7802;BME280;3945;48.952;9.506;2022-09-17T04:01:22;97647.75;;;10.90;91.62
7802;BME280;3945;48.952;9.506;2022-09-17T04:03:48;97645.06;;;10.90;91.33
7802;BME280;3945;48.952;9.506;2022-09-17T04:06:16;97645.06;;;10.90;90.99
7802;BME280;3945;48.952;9.506;2022-09-17T04:08:42;97641.13;;;10.93;90.11
7802;BME280;3945;48.952;9.506;2022-09-17T04:11:08;97650.16;;;10.92;90.38
7802;BME280;3945;48.952;9.506;2022-09-17T04:13:35;97645.06;;;10.90;90.54
7802;BME280;3945;48.952;9.506;2022-09-17T04:16:01;97647.44;;;10.87;90.20
7802;BME280;3945;48.952;9.506;2022-09-17T04:18:27;97645.50;;;10.82;89.30
7802;BME280;3945;48.952;9.506;2022-09-17T04:20:54;97644.41;;;10.78;89.41
7802;BME280;3945;48.952;9.506;2022-09-17T04:23:21;97641.81;;;10.83;88.94
7802;BME280;3945;48.952;9.506;2022-09-17T04:25:48;97643.47;;;10.68;89.22
7802;BME280;3945;48.952;9.506;2022-09-17T04:28:14;97638.09;;;10.63;89.16
7802;BME280;3945;48.952;9.506;2022-09-17T04:30:41;97635.38;;;10.57;89.35
7802;BME280;3945;48.952;9.506;2022-09-17T04:33:07;97633.22;;;10.54;89.57
7802;BME280;3945;48.952;9.506;2022-09-17T04:35:34;97639.72;;;10.64;90.21
7802;BME280;3945;48.952;9.506;2022-09-17T04:38:01;97644.38;;;10.51;89.64
7802;BME280;3945;48.952;9.506;2022-09-17T04:40:28;97653.31;;;10.45;89.33
7802;BME280;3945;48.952;9.506;2022-09-17T04:42:55;97661.97;;;10.36;89.62
7802;BME280;3945;48.952;9.506;2022-09-17T04:45:23;97661.16;;;10.35;90.45
7802;BME280;3945;48.952;9.506;2022-09-17T04:47:49;97665.34;;;10.31;90.46
7802;BME280;3945;48.952;9.506;2022-09-17T04:50:16;97670.94;;;10.30;90.50
7802;BME280;3945;48.952;9.506;2022-09-17T04:52:42;97668.81;;;10.32;90.43
7802;BME280;3945;48.952;9.506;2022-09-17T04:55:09;97668.91;;;10.37;90.57
7802;BME280;3945;48.952;9.506;2022-09-17T04:57:37;97668.34;;;10.35;90.05
7802;BME280;3945;48.952;9.506;2022-09-17T05:00:03;97672.03;;;10.34;90.33
7802;BME280;3945;48.952;9.506;2022-09-17T05:02:30;97676.13;;;10.41;90.30
7802;BME280;3945;48.952;9.506;2022-09-17T05:04:56;97683.25;;;10.36;89.69
7802;BME280;3945;48.952;9.506;2022-09-17T05:07:23;97682.91;;;10.32;89.55
7802;BME280;3945;48.952;9.506;2022-09-17T05:09:49;97686.91;;;10.30;89.95
7802;BME280;3945;48.952;9.506;2022-09-17T05:12:16;97691.13;;;10.31;90.20
7802;BME280;3945;48.952;9.506;2022-09-17T05:14:43;97693.81;;;10.31;89.88
7802;BME280;3945;48.952;9.506;2022-09-17T05:17:09;97691.66;;;10.28;89.93
7802;BME280;3945;48.952;9.506;2022-09-17T05:19:36;97691.06;;;10.26;90.21
7802;BME280;3945;48.952;9.506;2022-09-17T05:22:02;97692.69;;;10.27;90.40
7802;BME280;3945;48.952;9.506;2022-09-17T05:24:28;97693.75;;;10.26;90.48
7802;BME280;3945;48.952;9.506;2022-09-17T05:26:55;97693.50;;;10.27;90.08
7802;BME280;3945;48.952;9.506;2022-09-17T05:29:21;97689.63;;;10.18;90.17
7802;BME280;3945;48.952;9.506;2022-09-17T05:31:49;97698.41;;;10.18;90.56
7802;BME280;3945;48.952;9.506;2022-09-17T05:34:15;97690.69;;;10.17;91.03
7802;BME280;3945;48.952;9.506;2022-09-17T05:36:41;97691.50;;;10.17;90.73
7802;BME280;3945;48.952;9.506;2022-09-17T05:39:07;97705.50;;;10.13;90.48
7802;BME280;3945;48.952;9.506;2022-09-17T05:41:34;97707.66;;;10.16;91.21
7802;BME280;3945;48.952;9.506;2022-09-17T05:44:00;97717.84;;;10.19;91.76
7802;BME280;3945;48.952;9.506;2022-09-17T05:46:26;97711.47;;;10.20;91.29
7802;BME280;3945;48.952;9.506;2022-09-17T05:48:55;97716.28;;;10.23;91.42
7802;BME280;3945;48.952;9.506;2022-09-17T05:51:21;97706.16;;;10.20;91.22
7802;BME280;3945;48.952;9.506;2022-09-17T05:53:48;97718.94;;;10.23;91.38
7802;BME280;3945;48.952;9.506;2022-09-17T05:56:14;97717.44;;;10.27;91.42
7802;BME280;3945;48.952;9.506;2022-09-17T05:58:40;97722.25;;;10.30;91.20
7802;BME280;3945;48.952;9.506;2022-09-17T06:01:07;97719.84;;;10.29;90.77
7802;BME280;3945;48.952;9.506;2022-09-17T06:03:39;97724.59;;;10.27;90.52
7802;BME280;3945;48.952;9.506;2022-09-17T06:06:07;97726.47;;;10.26;90.38
7802;BME280;3945;48.952;9.506;2022-09-17T06:08:34;97722.91;;;10.21;90.11
7802;BME280;3945;48.952;9.506;2022-09-17T06:11:02;97733.78;;;10.19;90.52
7802;BME280;3945;48.952;9.506;2022-09-17T06:13:28;97726.25;;;10.16;90.29
7802;BME280;3945;48.952;9.506;2022-09-17T06:15:55;97730.22;;;10.13;90.64
7802;BME280;3945;48.952;9.506;2022-09-17T06:18:21;97734.16;;;10.11;90.43
7802;BME280;3945;48.952;9.506;2022-09-17T06:20:53;97735.31;;;10.15;91.20
7802;BME280;3945;48.952;9.506;2022-09-17T06:23:21;97736.81;;;10.11;90.53
7802;BME280;3945;48.952;9.506;2022-09-17T06:25:51;97738.91;;;10.09;90.77
7802;BME280;3945;48.952;9.506;2022-09-17T06:28:18;97746.13;;;10.08;90.58
7802;BME280;3945;48.952;9.506;2022-09-17T06:30:44;97743.91;;;10.05;90.31
7802;BME280;3945;48.952;9.506;2022-09-17T06:33:10;97745.44;;;10.01;90.61
7802;BME280;3945;48.952;9.506;2022-09-17T06:35:37;97746.16;;;9.97;90.69
7802;BME280;3945;48.952;9.506;2022-09-17T06:38:03;97743.84;;;10.00;91.34
7802;BME280;3945;48.952;9.506;2022-09-17T06:40:31;97752.28;;;9.97;90.96
7802;BME280;3945;48.952;9.506;2022-09-17T06:42:57;97752.88;;;9.99;90.97
7802;BME280;3945;48.952;9.506;2022-09-17T06:45:24;97745.69;;;10.00;90.86
7802;BME280;3945;48.952;9.506;2022-09-17T06:47:50;97753.19;;;10.03;90.67
7802;BME280;3945;48.952;9.506;2022-09-17T06:50:16;97750.28;;;10.04;90.46
7802;BME280;3945;48.952;9.506;2022-09-17T06:52:46;97750.03;;;10.06;90.95
7802;BME280;3945;48.952;9.506;2022-09-17T06:55:13;97756.75;;;10.08;91.79
7802;BME280;3945;48.952;9.506;2022-09-17T06:57:41;97748.78;;;10.08;91.56
7802;BME280;3945;48.952;9.506;2022-09-17T07:00:09;97758.09;;;10.11;91.70
7802;BME280;3945;48.952;9.506;2022-09-17T07:02:36;97764.22;;;10.11;91.25
7802;BME280;3945;48.952;9.506;2022-09-17T07:05:02;97758.03;;;10.06;90.47
7802;BME280;3945;48.952;9.506;2022-09-17T07:07:29;97758.25;;;10.04;90.81
7802;BME280;3945;48.952;9.506;2022-09-17T07:09:56;97759.31;;;10.03;91.95
7802;BME280;3945;48.952;9.506;2022-09-17T07:12:22;97767.19;;;9.98;91.50
7802;BME280;3945;48.952;9.506;2022-09-17T07:14:49;97760.03;;;9.99;92.62
7802;BME280;3945;48.952;9.506;2022-09-17T07:17:16;97756.81;;;9.97;93.33
7802;BME280;3945;48.952;9.506;2022-09-17T07:19:43;97758.41;;;9.98;93.87
7802;BME280;3945;48.952;9.506;2022-09-17T07:22:09;97764.19;;;9.95;93.87
7802;BME280;3945;48.952;9.506;2022-09-17T07:24:37;97768.25;;;9.97;94.32
7802;BME280;3945;48.952;9.506;2022-09-17T07:27:04;97773.09;;;10.00;94.58
7802;BME280;3945;48.952;9.506;2022-09-17T07:29:30;97774.38;;;9.98;94.27
7802;BME280;3945;48.952;9.506;2022-09-17T07:31:58;97778.78;;;9.92;94.46
7802;BME280;3945;48.952;9.506;2022-09-17T07:34:24;97789.28;;;9.99;95.73
7802;BME280;3945;48.952;9.506;2022-09-17T07:36:52;97781.88;;;10.01;96.24
7802;BME280;3945;48.952;9.506;2022-09-17T07:39:18;97787.72;;;10.03;96.04
7802;BME280;3945;48.952;9.506;2022-09-17T07:41:44;97785.66;;;10.05;95.80
7802;BME280;3945;48.952;9.506;2022-09-17T07:44:11;97790.72;;;10.06;95.92
7802;BME280;3945;48.952;9.506;2022-09-17T07:46:37;97786.22;;;10.07;95.86
7802;BME280;3945;48.952;9.506;2022-09-17T07:49:05;97789.91;;;10.06;95.84
7802;BME280;3945;48.952;9.506;2022-09-17T07:51:31;97795.72;;;10.03;95.90
7802;BME280;3945;48.952;9.506;2022-09-17T07:53:58;97790.72;;;10.06;96.33
7802;BME280;3945;48.952;9.506;2022-09-17T07:56:24;97797.41;;;10.09;96.89
7802;BME280;3945;48.952;9.506;2022-09-17T07:58:51;97796.94;;;10.12;96.57
7802;BME280;3945;48.952;9.506;2022-09-17T08:01:18;97799.03;;;10.10;95.55
7802;BME280;3945;48.952;9.506;2022-09-17T08:03:47;97802.03;;;10.13;95.95
7802;BME280;3945;48.952;9.506;2022-09-17T08:06:16;97807.25;;;10.08;94.64
7802;BME280;3945;48.952;9.506;2022-09-17T08:08:43;97812.69;;;10.02;94.75
7802;BME280;3945;48.952;9.506;2022-09-17T08:11:10;97813.91;;;9.94;94.60
7802;BME280;3945;48.952;9.506;2022-09-17T08:13:37;97803.84;;;9.96;95.43
7802;BME280;3945;48.952;9.506;2022-09-17T08:16:04;97818.75;;;9.97;96.16
7802;BME280;3945;48.952;9.506;2022-09-17T08:18:31;97815.78;;;9.94;95.65
7802;BME280;3945;48.952;9.506;2022-09-17T08:20:59;97809.38;;;9.95;96.17
7802;BME280;3945;48.952;9.506;2022-09-17T08:23:27;97812.03;;;9.95;96.39
7802;BME280;3945;48.952;9.506;2022-09-17T08:25:54;97813.50;;;10.02;96.83
7802;BME280;3945;48.952;9.506;2022-09-17T08:28:20;97811.19;;;10.06;96.91
7802;BME280;3945;48.952;9.506;2022-09-17T08:30:47;97812.31;;;10.10;97.08
7802;BME280;3945;48.952;9.506;2022-09-17T08:33:14;97817.97;;;10.13;97.07
7802;BME280;3945;48.952;9.506;2022-09-17T08:35:41;97808.13;;;10.14;96.58
7802;BME280;3945;48.952;9.506;2022-09-17T08:38:07;97812.66;;;10.13;96.28
7802;BME280;3945;48.952;9.506;2022-09-17T08:40:38;97807.56;;;10.12;96.55
7802;BME280;3945;48.952;9.506;2022-09-17T08:43:09;97806.53;;;10.13;96.62
7802;BME280;3945;48.952;9.506;2022-09-17T08:45:38;97812.66;;;10.13;97.04
7802;BME280;3945;48.952;9.506;2022-09-17T08:48:04;97810.47;;;10.10;96.19
7802;BME280;3945;48.952;9.506;2022-09-17T08:50:31;97815.53;;;10.12;96.21
7802;BME280;3945;48.952;9.506;2022-09-17T08:53:01;97819.81;;;10.13;96.10
7802;BME280;3945;48.952;9.506;2022-09-17T08:55:33;97823.63;;;10.17;96.07
7802;BME280;3945;48.952;9.506;2022-09-17T09:00:56;97826.88;;;10.19;95.57
7802;BME280;3945;48.952;9.506;2022-09-17T09:03:26;97821.44;;;10.14;95.39
7802;BME280;3945;48.952;9.506;2022-09-17T09:05:57;97830.34;;;10.20;95.69
7802;BME280;3945;48.952;9.506;2022-09-17T09:08:25;97829.88;;;10.23;96.21
7802;BME280;3945;48.952;9.506;2022-09-17T09:10:56;97821.97;;;10.28;96.10
7802;BME280;3945;48.952;9.506;2022-09-17T09:13:27;97828.63;;;10.30;95.33
7802;BME280;3945;48.952;9.506;2022-09-17T09:15:58;97827.13;;;10.34;95.21
7802;BME280;3945;48.952;9.506;2022-09-17T09:18:25;97820.81;;;10.40;95.53
7802;BME280;3945;48.952;9.506;2022-09-17T09:20:52;97823.81;;;10.44;95.27
7802;BME280;3945;48.952;9.506;2022-09-17T09:23:20;97813.00;;;10.50;95.99
7802;BME280;3945;48.952;9.506;2022-09-17T09:25:52;97819.53;;;10.60;96.26
7802;BME280;3945;48.952;9.506;2022-09-17T09:28:26;97827.91;;;10.68;95.53
7802;BME280;3945;48.952;9.506;2022-09-17T09:30:57;97826.38;;;10.72;94.45
7802;BME280;3945;48.952;9.506;2022-09-17T09:33:30;97830.72;;;10.78;94.68
7802;BME280;3945;48.952;9.506;2022-09-17T09:35:57;97826.59;;;10.87;94.07
7802;BME280;3945;48.952;9.506;2022-09-17T09:38:26;97821.09;;;10.94;93.03
7802;BME280;3945;48.952;9.506;2022-09-17T09:40:56;97812.13;;;11.00;93.78
7802;BME280;3945;48.952;9.506;2022-09-17T09:43:28;97814.03;;;11.05;93.10
7802;BME280;3945;48.952;9.506;2022-09-17T09:46:07;97815.09;;;11.04;92.25
7802;BME280;3945;48.952;9.506;2022-09-17T09:48:42;97818.03;;;11.02;91.88
7802;BME280;3945;48.952;9.506;2022-09-17T09:51:17;97823.09;;;11.04;91.98
7802;BME280;3945;48.952;9.506;2022-09-17T09:53:49;97822.53;;;11.02;90.63
7802;BME280;3945;48.952;9.506;2022-09-17T09:56:24;97816.94;;;11.03;90.34
7802;BME280;3945;48.952;9.506;2022-09-17T09:58:55;97824.88;;;10.98;89.37
7802;BME280;3945;48.952;9.506;2022-09-17T10:01:21;97825.69;;;10.99;89.98
7802;BME280;3945;48.952;9.506;2022-09-17T10:03:51;97832.63;;;11.00;90.66
7802;BME280;3945;48.952;9.506;2022-09-17T10:06:18;97825.75;;;11.04;92.36
7802;BME280;3945;48.952;9.506;2022-09-17T10:11:26;97814.00;;;11.21;91.65
7802;BME280;3945;48.952;9.506;2022-09-17T10:13:53;97821.38;;;11.36;91.66
7802;BME280;3945;48.952;9.506;2022-09-17T10:16:38;97820.03;;;11.60;92.38
7802;BME280;3945;48.952;9.506;2022-09-17T10:19:12;97813.47;;;11.90;91.07
7802;BME280;3945;48.952;9.506;2022-09-17T10:21:40;97810.44;;;12.08;88.79
7802;BME280;3945;48.952;9.506;2022-09-17T10:24:09;97815.19;;;12.33;87.30
7802;BME280;3945;48.952;9.506;2022-09-17T10:26:38;97799.47;;;12.73;84.89
7802;BME280;3945;48.952;9.506;2022-09-17T10:29:05;97812.97;;;12.99;83.33
7802;BME280;3945;48.952;9.506;2022-09-17T10:31:44;97800.97;;;13.01;79.91
7802;BME280;3945;48.952;9.506;2022-09-17T10:34:18;97795.34;;;12.98;80.41
7802;BME280;3945;48.952;9.506;2022-09-17T10:36:45;97803.59;;;12.91;80.80
7802;BME280;3945;48.952;9.506;2022-09-17T10:39:21;97792.88;;;12.86;80.06
7802;BME280;3945;48.952;9.506;2022-09-17T10:41:54;97802.47;;;12.82;81.15
7802;BME280;3945;48.952;9.506;2022-09-17T10:44:21;97794.47;;;12.82;79.37
7802;BME280;3945;48.952;9.506;2022-09-17T10:46:47;97806.22;;;12.81;79.66
7802;BME280;3945;48.952;9.506;2022-09-17T10:49:17;97808.91;;;12.86;78.79
7802;BME280;3945;48.952;9.506;2022-09-17T10:51:49;97809.97;;;12.90;80.16
7802;BME280;3945;48.952;9.506;2022-09-17T10:54:23;97816.09;;;12.80;79.97
7802;BME280;3945;48.952;9.506;2022-09-17T10:56:53;97815.09;;;12.55;82.42
7802;BME280;3945;48.952;9.506;2022-09-17T10:59:29;97812.72;;;12.26;81.50
7802;BME280;3945;48.952;9.506;2022-09-17T11:02:03;97815.81;;;12.13;82.52
7802;BME280;3945;48.952;9.506;2022-09-17T11:04:39;97807.78;;;12.08;84.03
7802;BME280;3945;48.952;9.506;2022-09-17T11:07:18;97815.25;;;12.11;85.86
7802;BME280;3945;48.952;9.506;2022-09-17T11:09:52;97803.59;;;12.17;86.93
7802;BME280;3945;48.952;9.506;2022-09-17T11:12:24;97804.81;;;12.36;89.10
7802;BME280;3945;48.952;9.506;2022-09-17T11:14:54;97801.75;;;12.55;89.20
7802;BME280;3945;48.952;9.506;2022-09-17T11:17:28;97801.28;;;12.63;88.69
7802;BME280;3945;48.952;9.506;2022-09-17T11:19:57;97806.84;;;12.61;86.76
7802;BME280;3945;48.952;9.506;2022-09-17T11:22:29;97819.31;;;12.45;86.47
7802;BME280;3945;48.952;9.506;2022-09-17T11:27:51;97853.28;;;12.23;87.82
7802;BME280;3945;48.952;9.506;2022-09-17T11:30:21;97851.09;;;11.93;85.12
7802;BME280;3945;48.952;9.506;2022-09-17T11:33:07;97840.41;;;11.66;85.37
7802;BME280;3945;48.952;9.506;2022-09-17T11:35:39;97775.56;;;11.39;83.19
7802;BME280;3945;48.952;9.506;2022-09-17T11:38:09;97783.38;;;11.24;84.22
7802;BME280;3945;48.952;9.506;2022-09-17T11:40:39;97795.94;;;11.23;84.77
7802;BME280;3945;48.952;9.506;2022-09-17T11:43:12;97789.28;;;11.26;86.87
7802;BME280;3945;48.952;9.506;2022-09-17T11:45:40;97804.06;;;11.39;87.38
7802;BME280;3945;48.952;9.506;2022-09-17T11:48:11;97787.94;;;11.45;88.40
7802;BME280;3945;48.952;9.506;2022-09-17T11:50:39;97792.25;;;11.51;87.28
7802;BME280;3945;48.952;9.506;2022-09-17T11:53:13;97797.38;;;11.58;87.32
7802;BME280;3945;48.952;9.506;2022-09-17T11:55:43;97797.63;;;11.56;85.52
7802;BME280;3945;48.952;9.506;2022-09-17T11:58:13;97796.34;;;11.59;86.22
7802;BME280;3945;48.952;9.506;2022-09-17T12:00:42;97787.34;;;11.65;85.97
7802;BME280;3945;48.952;9.506;2022-09-17T12:03:12;97785.88;;;11.74;85.66
7802;BME280;3945;48.952;9.506;2022-09-17T12:05:41;97778.78;;;11.90;85.88
7802;BME280;3945;48.952;9.506;2022-09-17T12:08:12;97780.91;;;12.15;87.21
7802;BME280;3945;48.952;9.506;2022-09-17T12:10:42;97768.63;;;12.50;89.99
7802;BME280;3945;48.952;9.506;2022-09-17T12:13:15;97775.19;;;12.75;89.77
7802;BME280;3945;48.952;9.506;2022-09-17T12:15:44;97771.50;;;12.86;85.22
7802;BME280;3945;48.952;9.506;2022-09-17T12:18:16;97761.66;;;12.91;82.77
7802;BME280;3945;48.952;9.506;2022-09-17T12:20:46;97762.22;;;12.94;82.11
7802;BME280;3945;48.952;9.506;2022-09-17T12:23:16;97752.06;;;12.96;85.56
7802;BME280;3945;48.952;9.506;2022-09-17T12:25:45;97744.63;;;13.03;84.37
7802;BME280;3945;48.952;9.506;2022-09-17T12:28:15;97746.25;;;13.04;84.84
7802;BME280;3945;48.952;9.506;2022-09-17T12:30:46;97729.09;;;12.95;85.19
7802;BME280;3945;48.952;9.506;2022-09-17T12:33:18;97722.84;;;12.74;84.94
7802;BME280;3945;48.952;9.506;2022-09-17T12:38:35;97729.63;;;12.44;87.37
7802;BME280;3945;48.952;9.506;2022-09-17T12:41:09;97737.59;;;12.39;87.25
7802;BME280;3945;48.952;9.506;2022-09-17T12:43:44;97712.72;;;12.34;89.16
7802;BME280;3945;48.952;9.506;2022-09-17T12:46:17;97718.03;;;12.29;89.39
7802;BME280;3945;48.952;9.506;2022-09-17T12:51:40;97745.75;;;12.23;90.16
7802;BME280;3945;48.952;9.506;2022-09-17T12:54:13;97742.03;;;12.24;90.29
7802;BME280;3945;48.952;9.506;2022-09-17T12:56:45;97754.25;;;12.20;89.63
7802;BME280;3945;48.952;9.506;2022-09-17T12:59:15;97761.97;;;12.16;89.97
7802;BME280;3945;48.952;9.506;2022-09-17T13:01:45;97761.09;;;12.10;90.46
7802;BME280;3945;48.952;9.506;2022-09-17T13:04:22;97761.91;;;12.11;91.40
7802;BME280;3945;48.952;9.506;2022-09-17T13:09:45;97753.69;;;12.18;91.52
7802;BME280;3945;48.952;9.506;2022-09-17T13:12:19;97745.44;;;12.19;92.10
7802;BME280;3945;48.952;9.506;2022-09-17T13:14:53;97748.63;;;12.16;91.24
7802;BME280;3945;48.952;9.506;2022-09-17T13:17:22;97754.69;;;12.06;90.48
7802;BME280;3945;48.952;9.506;2022-09-17T13:19:53;97748.66;;;11.89;89.33
7802;BME280;3945;48.952;9.506;2022-09-17T13:22:25;97771.81;;;11.84;89.95
7802;BME280;3945;48.952;9.506;2022-09-17T13:25:03;97766.72;;;11.82;89.61
7802;BME280;3945;48.952;9.506;2022-09-17T13:27:29;97763.84;;;11.89;90.94
7802;BME280;3945;48.952;9.506;2022-09-17T13:29:56;97757.47;;;11.90;91.39
7802;BME280;3945;48.952;9.506;2022-09-17T13:32:42;97764.97;;;11.93;90.48
7802;BME280;3945;48.952;9.506;2022-09-17T13:37:53;97766.94;;;12.02;90.42
7802;BME280;3945;48.952;9.506;2022-09-17T13:40:23;97763.16;;;11.98;88.73
7802;BME280;3945;48.952;9.506;2022-09-17T13:42:50;97773.06;;;12.03;89.65
7802;BME280;3945;48.952;9.506;2022-09-17T13:45:19;97759.34;;;12.21;90.36
7802;BME280;3945;48.952;9.506;2022-09-17T13:47:47;97753.97;;;12.53;92.56
7802;BME280;3945;48.952;9.506;2022-09-17T13:50:23;97755.44;;;12.76;90.35
7802;BME280;3945;48.952;9.506;2022-09-17T13:52:50;97760.50;;;12.72;86.83
7802;BME280;3945;48.952;9.506;2022-09-17T13:55:31;97762.34;;;12.67;86.57
7802;BME280;3945;48.952;9.506;2022-09-17T13:57:59;97761.75;;;12.60;84.48
7802;BME280;3945;48.952;9.506;2022-09-17T14:00:46;97764.69;;;12.63;85.61